Time;durP1;ratioP1;P1;durP2;ratioP2;P2;SDS_P1;SDS_P2;PMS_P1;PMS_P2;Temp;Humidity;BMP_temperature;BMP_pressure;BME280_temperature;BME280_humidity;BME280_pressure;Samples;Min_cycle;Max_cycle;Signal;HPM_P1;HPM_P2
2021/06/06 00:00:29;;;;;;;1.45;1.25;;;;;;;21.89;57.89;100297.97;2086755;28;20032;-46
2021/06/06 00:01:37;;;;;;;3.40;1.90;;;;;;;21.90;58.02;100299.69;2086940;28;20045;-48
2021/06/06 00:02:37;;;;;;;2.40;2.20;;;;;;;21.89;57.87;100289.75;2087382;28;20025;-46
2021/06/06 00:03:44;;;;;;;2.40;1.77;;;;;;;21.89;57.73;100292.50;2090295;28;20312;-49
2021/06/06 00:04:45;;;;;;;2.65;1.33;;;;;;;21.90;58.11;100283.22;2089312;28;20031;-47
2021/06/06 00:05:53;;;;;;;2.77;1.73;;;;;;;21.90;58.10;100288.72;2093254;28;20323;-46
2021/06/06 00:06:53;;;;;;;1.70;1.52;;;;;;;21.90;57.78;100294.19;2089030;28;20024;-47
2021/06/06 00:07:54;;;;;;;2.40;1.57;;;;;;;21.90;58.14;100288.72;2090264;28;20396;-46
2021/06/06 00:08:56;;;;;;;2.37;1.43;;;;;;;21.89;58.10;100282.38;2093247;28;20086;-47
2021/06/06 00:09:56;;;;;;;2.72;1.42;;;;;;;21.88;58.25;100286.16;2079280;28;20057;-49
2021/06/06 00:11:01;;;;;;;3.30;1.60;;;;;;;21.90;58.21;100289.59;2076475;28;20029;-47
2021/06/06 00:12:01;;;;;;;3.17;1.40;;;;;;;21.90;58.44;100280.47;2084257;28;20036;-47
2021/06/06 00:13:02;;;;;;;2.13;1.43;;;;;;;21.89;58.03;100287.84;2081653;28;20764;-46
2021/06/06 00:14:06;;;;;;;2.05;1.60;;;;;;;21.89;57.98;100292.50;2092157;28;20020;-49
2021/06/06 00:15:10;;;;;;;4.45;1.90;;;;;;;21.89;58.07;100287.00;2084272;28;20025;-46
2021/06/06 00:16:14;;;;;;;2.78;1.40;;;;;;;21.89;57.92;100281.50;2085246;28;20033;-46
2021/06/06 00:17:14;;;;;;;2.85;1.90;;;;;;;21.90;58.31;100283.22;2084899;28;20040;-47
2021/06/06 00:18:15;;;;;;;2.70;1.97;;;;;;;21.89;58.27;100287.00;2082002;28;20045;-48
2021/06/06 00:19:18;;;;;;;2.97;1.53;;;;;;;21.89;57.98;100284.25;2076875;28;20033;-46
2021/06/06 00:20:18;;;;;;;2.75;1.48;;;;;;;21.88;58.09;100286.16;2081570;28;20079;-47
2021/06/06 00:21:21;;;;;;;2.47;1.90;;;;;;;21.89;58.02;100284.25;2092970;28;20102;-46
2021/06/06 00:22:21;;;;;;;2.47;1.60;;;;;;;21.89;57.86;100284.25;2087423;28;20078;-46
2021/06/06 00:23:22;;;;;;;2.77;1.80;;;;;;;21.90;58.10;100283.22;2081463;28;20029;-47
2021/06/06 00:24:25;;;;;;;2.63;1.80;;;;;;;21.90;57.68;100283.22;2088534;28;20154;-45
2021/06/06 00:25:26;;;;;;;2.55;1.55;;;;;;;21.88;57.77;100279.78;2089099;28;20029;-46
2021/06/06 00:26:26;;;;;;;3.85;1.52;;;;;;;21.90;58.07;100280.47;2088337;28;20013;-47
2021/06/06 00:27:27;;;;;;;2.60;1.50;;;;;;;21.90;58.00;100280.47;2081032;28;20036;-49
2021/06/06 00:28:27;;;;;;;2.73;1.77;;;;;;;21.89;57.90;100276.03;2079899;28;20160;-47
2021/06/06 00:29:28;;;;;;;3.40;1.60;;;;;;;21.89;57.94;100276.03;2088607;28;20051;-46
2021/06/06 00:30:29;;;;;;;3.00;1.83;;;;;;;21.89;57.92;100271.38;2084872;28;20022;-49
2021/06/06 00:31:29;;;;;;;2.90;1.40;;;;;;;21.89;57.91;100276.88;2088940;28;20029;-46
2021/06/06 00:32:30;;;;;;;3.97;1.70;;;;;;;21.89;58.18;100271.38;2086467;28;20502;-46
2021/06/06 00:33:30;;;;;;;2.77;1.50;;;;;;;21.89;58.23;100270.53;2083021;28;20462;-47
2021/06/06 00:34:31;;;;;;;1.80;1.40;;;;;;;21.89;57.92;100267.78;2087014;28;20033;-47
2021/06/06 00:35:32;;;;;;;2.07;1.77;;;;;;;21.90;57.76;100269.50;2086538;28;20111;-46
2021/06/06 00:36:32;;;;;;;2.57;1.40;;;;;;;21.89;57.84;100268.63;2088830;28;20052;-49
2021/06/06 00:37:33;;;;;;;1.90;1.13;;;;;;;21.89;57.90;100259.56;2089436;28;20025;-50
2021/06/06 00:38:34;;;;;;;2.17;1.50;;;;;;;21.88;58.04;100263.31;2088310;28;20024;-47
2021/06/06 00:39:34;;;;;;;2.57;1.40;;;;;;;21.89;58.19;100265.91;2088773;28;20017;-49
2021/06/06 00:40:37;;;;;;;2.60;1.80;;;;;;;21.89;57.94;100267.78;2086219;28;20020;-46
2021/06/06 00:41:41;;;;;;;2.67;1.60;;;;;;;21.89;58.06;100259.56;2085887;28;20024;-46
2021/06/06 00:42:41;;;;;;;2.17;1.40;;;;;;;21.89;57.87;100254.91;2088535;28;20339;-47
2021/06/06 00:43:42;;;;;;;2.93;1.90;;;;;;;21.89;58.04;100256.81;2082112;28;20013;-48
2021/06/06 00:44:42;;;;;;;2.37;1.53;;;;;;;21.90;57.86;100255.78;2085229;28;20469;-48
2021/06/06 00:45:43;;;;;;;3.57;1.80;;;;;;;21.88;57.81;100255.97;2086029;28;20021;-47
2021/06/06 00:46:44;;;;;;;2.57;1.50;;;;;;;21.89;57.95;100254.06;2088339;28;20024;-50
2021/06/06 00:47:44;;;;;;;3.17;1.45;;;;;;;21.88;58.13;100252.31;2088829;28;20021;-47
2021/06/06 00:48:45;;;;;;;3.63;1.90;;;;;;;21.88;57.87;100258.69;2087815;28;20431;-47
2021/06/06 00:49:45;;;;;;;3.50;1.57;;;;;;;21.88;57.95;100252.31;2075757;28;20050;-47
2021/06/06 00:50:50;;;;;;;2.73;1.70;;;;;;;21.87;58.01;100256.97;2080849;28;20107;-46
2021/06/06 00:51:54;;;;;;;2.72;1.85;;;;;;;21.88;57.92;100252.31;2087468;28;20031;-46
2021/06/06 00:52:59;;;;;;;2.22;1.33;;;;;;;21.89;58.06;100254.91;2084469;28;20026;-47
2021/06/06 00:54:07;;;;;;;2.33;1.38;;;;;;;21.88;58.19;100263.31;2087794;28;20025;-47
2021/06/06 00:55:10;;;;;;;2.75;1.42;;;;;;;21.88;58.00;100255.06;2087566;28;20123;-47
2021/06/06 00:56:15;;;;;;;1.80;1.25;;;;;;;21.87;58.18;100254.22;2088504;28;20036;-46
2021/06/06 00:57:19;;;;;;;2.55;1.90;;;;;;;21.87;58.09;100245.13;2085246;28;20430;-48
2021/06/06 00:58:22;;;;;;;1.75;1.40;;;;;;;21.88;58.17;100255.06;2088734;28;20275;-48
2021/06/06 00:59:26;;;;;;;2.63;1.70;;;;;;;21.87;58.07;100245.13;2088865;28;20030;-48
2021/06/06 01:00:34;;;;;;;2.60;1.40;;;;;;;21.87;58.26;100253.38;2084537;28;20033;-48
2021/06/06 01:01:34;;;;;;;3.10;1.92;;;;;;;21.86;57.91;100246.16;2085696;28;20500;-49
2021/06/06 01:02:35;;;;;;;2.93;1.40;;;;;;;21.87;58.17;100245.13;2089905;28;20021;-47
2021/06/06 01:03:35;;;;;;;2.20;1.47;;;;;;;21.88;58.08;100246.84;2085530;28;20028;-47
2021/06/06 01:04:38;;;;;;;2.70;1.73;;;;;;;21.88;58.25;100249.59;2083872;28;20025;-48
2021/06/06 01:05:47;;;;;;;2.83;1.50;;;;;;;21.87;58.25;100250.63;2089134;28;20017;-48
2021/06/06 01:06:51;;;;;;;2.80;1.60;;;;;;;21.86;58.25;100243.44;2084138;28;20029;-48
2021/06/06 01:07:52;;;;;;;1.75;1.40;;;;;;;21.86;58.33;100247.03;2081777;28;20399;-46
2021/06/06 01:08:53;;;;;;;1.37;1.20;;;;;;;21.86;58.02;100243.44;2088420;28;20021;-47
2021/06/06 01:09:53;;;;;;;2.93;1.70;;;;;;;21.87;58.23;100247.88;2086117;28;20614;-46
2021/06/06 01:11:03;;;;;;;3.13;1.73;;;;;;;21.85;58.25;100248.03;2085330;28;20025;-47
2021/06/06 01:12:26;;;;;;;2.47;1.40;;;;;;;21.84;58.36;100247.19;2084495;28;20686;-46
2021/06/06 01:13:37;;;;;;;4.00;1.45;;;;;;;21.83;58.48;100245.47;2089218;28;20814;-49
2021/06/06 01:14:44;;;;;;;2.33;1.40;;;;;;;21.83;57.92;100242.72;2082679;28;20033;-48
2021/06/06 01:15:50;;;;;;;3.03;1.80;;;;;;;21.84;58.18;100247.19;2084694;28;20829;-46
2021/06/06 01:17:21;;;;;;;2.35;1.65;;;;;;;21.83;58.15;100244.63;2086744;28;20290;-46
2021/06/06 01:18:35;;;;;;;3.08;1.52;;;;;;;21.81;58.42;100242.03;2082893;28;20158;-47
2021/06/06 01:19:51;;;;;;;2.45;1.45;;;;;;;21.83;58.18;100250.09;2081610;28;20032;-48
2021/06/06 01:21:11;;;;;;;2.25;1.58;;;;;;;21.82;58.05;100249.22;2087480;28;20039;-49
2021/06/06 01:22:44;;;;;;;2.13;1.40;;;;;;;21.80;58.26;100256.78;2081793;28;20035;-49
2021/06/06 01:24:09;;;;;;;1.63;1.38;;;;;;;21.80;58.14;100251.28;2087636;28;20064;-47
2021/06/06 01:25:11;;;;;;;2.22;1.55;;;;;;;21.81;58.49;100246.66;2085878;28;20028;-46
2021/06/06 01:26:17;;;;;;;;;;;;;;;21.76;58.40;100254.53;2092859;28;20093;-47
2021/06/06 01:27:22;;;;;;;3.03;1.65;;;;;;;21.78;58.47;100253.34;2088464;28;19912;-47
2021/06/06 01:28:29;;;;;;;2.80;1.77;;;;;;;21.78;58.73;100252.47;2074822;28;20029;-49
2021/06/06 01:29:45;;;;;;;1.83;1.50;;;;;;;21.79;58.44;100249.56;2081969;28;20149;-46
2021/06/06 01:30:49;;;;;;;2.15;1.50;;;;;;;21.78;58.68;100253.34;2081854;28;20021;-46
2021/06/06 01:31:54;;;;;;;1.45;1.08;;;;;;;21.78;58.71;100253.34;2084150;28;20033;-48
2021/06/06 01:33:10;;;;;;;2.10;1.83;;;;;;;21.78;58.58;100242.38;2081627;28;20033;-50
2021/06/06 01:34:13;;;;;;;2.47;1.55;;;;;;;21.80;58.32;100242.19;2082391;28;20041;-48
2021/06/06 01:35:25;;;;;;;2.28;1.35;;;;;;;21.80;58.54;100239.44;2081783;28;20056;-47
2021/06/06 01:36:33;;;;;;;2.60;1.70;;;;;;;21.79;58.37;100243.22;2085579;28;20122;-48
2021/06/06 01:37:36;;;;;;;3.15;1.70;;;;;;;21.79;58.39;100244.06;2080610;28;20030;-46
2021/06/06 01:38:46;;;;;;;4.18;2.58;;;;;;;21.79;58.31;100238.59;2092369;28;20033;-47
2021/06/06 01:39:51;;;;;;;3.63;1.50;;;;;;;21.79;58.21;100238.59;2086516;28;20383;-46
2021/06/06 01:41:00;;;;;;;2.17;1.70;;;;;;;21.79;58.59;100238.59;2081703;28;20045;-47
2021/06/06 01:42:13;;;;;;;2.97;1.52;;;;;;;21.79;58.39;100240.47;2088256;28;20064;-46
2021/06/06 01:43:20;;;;;;;1.85;1.30;;;;;;;21.79;58.75;100241.31;2086931;28;20082;-46
2021/06/06 01:44:26;;;;;;;2.03;1.30;;;;;;;21.79;58.52;100238.59;2089292;28;20044;-45
2021/06/06 01:45:34;;;;;;;1.85;1.38;;;;;;;21.78;58.38;100228.66;2087229;28;20044;-48
2021/06/06 01:46:42;;;;;;;2.03;1.50;;;;;;;21.78;58.57;100234.13;2087945;28;20024;-46
2021/06/06 01:47:47;;;;;;;7.93;1.70;;;;;;;21.79;58.45;100234.97;2089702;28;20108;-46
2021/06/06 01:48:48;;;;;;;1.67;1.38;;;;;;;21.79;58.21;100226.75;2087711;28;20104;-51
2021/06/06 01:49:54;;;;;;;2.77;1.80;;;;;;;21.78;58.31;100225.91;2077356;28;20049;-47
2021/06/06 01:50:59;;;;;;;1.98;1.48;;;;;;;21.80;58.46;100237.56;2087584;28;20276;-46
2021/06/06 01:52:02;;;;;;;1.92;1.40;;;;;;;21.79;58.25;100232.25;2085339;28;20029;-46
2021/06/06 01:53:05;;;;;;;2.58;1.80;;;;;;;21.80;58.58;100233.94;2087338;28;20092;-49
2021/06/06 01:54:08;;;;;;;1.88;1.50;;;;;;;21.80;58.13;100234.84;2089111;28;20029;-47
2021/06/06 01:55:13;;;;;;;1.67;1.40;;;;;;;21.80;58.56;100243.06;2085766;28;20028;-49
2021/06/06 01:56:19;;;;;;;2.97;1.58;;;;;;;21.80;58.40;100245.81;2082759;28;20036;-47
2021/06/06 01:57:23;;;;;;;3.25;1.48;;;;;;;21.80;58.40;100244.91;2085124;28;20035;-47
2021/06/06 01:58:24;;;;;;;2.28;1.70;;;;;;;21.81;58.33;100241.16;2089247;28;20311;-47
2021/06/06 01:59:29;;;;;;;2.95;1.55;;;;;;;21.81;58.24;100242.03;2088660;28;20037;-47
2021/06/06 02:00:55;;;;;;;1.75;1.30;;;;;;;21.77;58.55;100240.63;2083914;28;20037;-47
2021/06/06 02:01:56;;;;;;;1.90;1.50;;;;;;;21.78;58.65;100236.88;2080404;28;20045;-50
2021/06/06 02:02:56;;;;;;;1.73;1.23;;;;;;;21.79;58.52;100241.31;2088406;28;20028;-47
2021/06/06 02:03:58;;;;;;;2.93;1.53;;;;;;;21.78;58.32;100234.13;2089603;28;20039;-47
2021/06/06 02:04:58;;;;;;;2.15;1.48;;;;;;;21.79;58.54;100238.59;2089848;28;20029;-45
2021/06/06 02:05:59;;;;;;;2.33;1.50;;;;;;;21.80;58.31;100240.31;2075240;28;20030;-45
2021/06/06 02:07:09;;;;;;;2.47;1.63;;;;;;;21.79;58.45;100233.09;2076403;28;20032;-48
2021/06/06 02:08:14;;;;;;;3.63;1.67;;;;;;;21.80;58.32;100233.94;2088720;28;20157;-49
2021/06/06 02:09:19;;;;;;;1.48;1.20;;;;;;;21.80;58.52;100228.47;2092077;28;20344;-48
2021/06/06 02:10:19;;;;;;;3.10;1.45;;;;;;;21.80;58.37;100228.47;2089597;28;20023;-46
2021/06/06 02:11:30;;;;;;;6.07;1.70;;;;;;;21.78;58.53;100231.38;2088339;28;20104;-48
2021/06/06 02:12:32;;;;;;;1.77;1.60;;;;;;;21.79;58.32;100224.84;2087605;28;20131;-47
2021/06/06 02:13:43;;;;;;;1.75;1.17;;;;;;;21.78;58.54;100228.66;2089583;28;20025;-46
2021/06/06 02:14:46;;;;;;;2.80;1.55;;;;;;;21.77;58.29;100224.16;2089894;28;20463;-47
2021/06/06 02:15:51;;;;;;;3.40;2.13;;;;;;;21.77;58.45;100229.66;2086758;28;20035;-48
2021/06/06 02:16:55;;;;;;;2.10;1.52;;;;;;;21.77;58.31;100224.16;2085371;28;20037;-47
2021/06/06 02:17:59;;;;;;;2.03;1.10;;;;;;;21.77;58.38;100221.41;2095052;28;20050;-46
2021/06/06 02:18:59;;;;;;;2.33;1.30;;;;;;;21.79;58.61;100229.50;2087698;28;20032;-47
2021/06/06 02:20:03;;;;;;;2.03;1.53;;;;;;;21.77;58.30;100218.66;2083609;28;20080;-46
2021/06/06 02:21:05;;;;;;;2.92;1.42;;;;;;;21.77;58.55;100223.31;2088096;28;20024;-48
2021/06/06 02:22:12;;;;;;;3.60;1.27;;;;;;;21.77;58.47;100228.78;2084758;28;20029;-47
2021/06/06 02:23:24;;;;;;;1.83;1.48;;;;;;;21.77;58.64;100218.66;2087974;28;20514;-47
2021/06/06 02:24:25;;;;;;;2.08;1.75;;;;;;;21.77;58.53;100231.53;2086108;28;20501;-46
2021/06/06 02:25:27;;;;;;;1.75;1.52;;;;;;;21.76;58.49;100222.44;2087880;28;20031;-45
2021/06/06 02:26:37;;;;;;;2.75;1.40;;;;;;;21.76;58.70;100224.34;2082032;28;20026;-46
2021/06/06 02:27:44;;;;;;;3.55;1.70;;;;;;;21.75;58.64;100226.19;2082195;28;21016;-46
2021/06/06 02:29:00;;;;;;;2.03;1.65;;;;;;;21.76;58.47;100222.44;2085756;28;20021;-50
2021/06/06 02:30:27;;;;;;;2.75;1.60;;;;;;;21.74;58.77;100219.00;2091846;28;20030;-47
2021/06/06 02:31:40;;;;;;;1.73;1.20;;;;;;;21.74;58.72;100219.00;2086767;28;20025;-48
2021/06/06 02:32:57;;;;;;;2.08;1.70;;;;;;;21.73;58.65;100219.16;2082233;28;20031;-46
2021/06/06 02:34:28;;;;;;;2.83;1.25;;;;;;;21.73;58.74;100216.41;2085999;28;20665;-48
2021/06/06 02:35:53;;;;;;;3.08;1.50;;;;;;;21.72;58.53;100225.69;2081123;28;20315;-48
2021/06/06 02:37:00;;;;;;;2.35;1.60;;;;;;;21.73;58.66;100232.88;2087830;28;20035;-46
2021/06/06 02:38:13;;;;;;;2.78;1.52;;;;;;;21.73;58.62;100227.38;2082556;28;20089;-47
2021/06/06 02:39:38;;;;;;;2.47;1.40;;;;;;;21.72;58.67;100237.50;2088389;28;20697;-47
2021/06/06 02:40:45;;;;;;;3.10;1.80;;;;;;;21.73;58.53;100233.75;2088505;28;20021;-46
2021/06/06 02:41:50;;;;;;;2.20;1.50;;;;;;;21.73;58.55;100231.03;2086185;28;20482;-47
2021/06/06 02:42:53;;;;;;;1.88;1.33;;;;;;;21.73;58.45;100231.03;2083595;28;20023;-49
2021/06/06 02:43:59;;;;;;;2.03;1.50;;;;;;;21.72;58.62;100229.28;2088240;28;20047;-47
2021/06/06 02:45:23;;;;;;;2.75;1.65;;;;;;;21.73;58.53;100238.38;2085618;28;20029;-47
2021/06/06 02:46:25;;;;;;;1.58;1.48;;;;;;;21.73;58.65;100238.38;2085846;28;20119;-47
2021/06/06 02:47:29;;;;;;;1.23;1.10;;;;;;;21.72;58.75;100226.53;2085918;28;20394;-46
2021/06/06 02:48:41;;;;;;;2.63;1.40;;;;;;;21.72;58.67;100226.53;2089431;28;20331;-46
2021/06/06 02:49:45;;;;;;;1.98;1.23;;;;;;;21.73;58.75;100224.66;2084292;28;20033;-47
2021/06/06 02:50:47;;;;;;;1.80;1.17;;;;;;;21.73;58.63;100228.28;2087771;28;20139;-48
2021/06/06 02:51:54;;;;;;;1.70;1.35;;;;;;;21.72;58.78;100226.53;2084381;28;20055;-46
2021/06/06 02:53:19;;;;;;;1.58;1.45;;;;;;;21.71;58.86;100219.34;2088585;28;20704;-46
2021/06/06 02:54:26;;;;;;;2.35;1.33;;;;;;;21.71;58.54;100218.50;2088700;28;20051;-46
2021/06/06 02:55:35;;;;;;;4.50;1.45;;;;;;;21.72;58.43;100226.53;2091943;28;20028;-47
2021/06/06 02:56:41;;;;;;;2.10;1.50;;;;;;;21.72;58.57;100226.53;2084381;28;20026;-47
2021/06/06 02:57:48;;;;;;;2.30;1.40;;;;;;;21.71;58.59;100219.34;2082526;28;20080;-47
2021/06/06 02:58:58;;;;;;;2.10;1.70;;;;;;;21.72;58.33;100215.56;2085549;28;20065;-47
2021/06/06 03:00:14;;;;;;;1.95;1.38;;;;;;;21.72;58.70;100215.56;2085228;28;20471;-47
2021/06/06 03:01:21;;;;;;;1.58;1.33;;;;;;;21.73;58.53;100217.31;2087504;28;20053;-46
2021/06/06 03:02:26;;;;;;;1.63;1.13;;;;;;;21.74;58.51;100218.16;2088293;28;20084;-49
2021/06/06 03:03:37;;;;;;;1.83;1.35;;;;;;;21.72;58.27;100221.06;2083806;28;20300;-46
2021/06/06 03:04:42;;;;;;;2.05;1.45;;;;;;;21.73;58.52;100222.78;2088119;28;20112;-46
2021/06/06 03:05:43;;;;;;;2.05;1.55;;;;;;;21.73;58.22;100217.31;2087771;28;20029;-48
2021/06/06 03:07:16;;;;;;;1.73;1.48;;;;;;;21.70;58.47;100217.59;2085261;28;20112;-47
2021/06/06 03:08:17;;;;;;;2.15;1.48;;;;;;;21.72;58.42;100220.19;2065030;28;21760;-46
2021/06/06 03:09:18;;;;;;;4.40;1.60;;;;;;;21.72;58.68;100215.56;2094340;28;20024;-47
2021/06/06 03:10:20;;;;;;;;;;;;;;;21.68;58.45;100222.44;2085948;28;20033;-46
2021/06/06 03:11:21;;;;;;;1.38;1.13;;;;;;;21.70;58.37;100216.75;2085458;28;19966;-47
2021/06/06 03:12:24;;;;;;;2.88;1.75;;;;;;;21.71;58.28;100223.97;2084593;28;20033;-46
2021/06/06 03:13:36;;;;;;;2.08;1.45;;;;;;;21.71;58.32;100224.84;2087904;28;20036;-47
2021/06/06 03:14:41;;;;;;;1.95;1.30;;;;;;;21.71;58.60;100222.09;2082759;28;20061;-49
2021/06/06 03:15:46;;;;;;;3.00;1.65;;;;;;;21.71;58.43;100219.34;2085958;28;20033;-46
2021/06/06 03:17:01;;;;;;;3.20;1.58;;;;;;;21.70;58.64;100225.84;2088195;28;20112;-47
2021/06/06 03:18:03;;;;;;;2.00;1.50;;;;;;;21.71;58.52;100230.31;2087615;28;20036;-46
2021/06/06 03:19:06;;;;;;;2.00;1.40;;;;;;;21.71;58.37;100227.56;2084029;28;20037;-47
2021/06/06 03:20:13;;;;;;;1.58;1.20;;;;;;;21.72;58.60;100225.69;2078981;28;20120;-46
2021/06/06 03:21:24;;;;;;;1.35;1.23;;;;;;;21.72;58.30;100232.03;2084730;28;20034;-47
2021/06/06 03:22:31;;;;;;;2.03;1.45;;;;;;;21.71;58.47;100235.81;2090169;28;20104;-47
2021/06/06 03:23:33;;;;;;;1.63;1.27;;;;;;;21.72;58.59;100237.50;2086588;28;20024;-46
2021/06/06 03:24:42;;;;;;;1.40;1.20;;;;;;;21.71;58.53;100235.81;2089457;28;20027;-48
2021/06/06 03:25:54;;;;;;;2.05;1.48;;;;;;;21.71;58.51;100237.69;2089798;28;20025;-47
2021/06/06 03:26:56;;;;;;;2.05;1.25;;;;;;;21.72;58.30;100237.50;2091120;28;20037;-47
2021/06/06 03:27:57;;;;;;;1.75;1.50;;;;;;;21.71;58.44;100224.84;2089119;28;20029;-46
2021/06/06 03:28:59;;;;;;;2.37;1.40;;;;;;;21.72;58.17;100226.53;2089421;28;20061;-47
2021/06/06 03:30:15;;;;;;;1.45;1.23;;;;;;;21.71;58.44;100224.84;2088310;28;20662;-48
2021/06/06 03:31:20;;;;;;;1.73;1.42;;;;;;;21.72;58.36;100220.19;2086736;28;20060;-46
2021/06/06 03:32:31;;;;;;;1.58;1.20;;;;;;;21.71;58.40;100224.84;2090256;28;21243;-46
2021/06/06 03:33:49;;;;;;;1.50;1.20;;;;;;;21.69;58.41;100226.03;2091916;28;20033;-46
2021/06/06 03:34:49;;;;;;;3.10;1.50;;;;;;;21.69;58.62;100218.66;2083754;28;20036;-46
2021/06/06 03:35:50;;;;;;;2.10;1.07;;;;;;;21.71;58.22;100224.84;2083248;28;20031;-46
2021/06/06 03:36:50;;;;;;;2.97;1.47;;;;;;;21.71;58.38;100213.00;2087392;28;20036;-47
2021/06/06 03:37:51;;;;;;;2.90;1.70;;;;;;;21.72;58.34;100218.31;2089301;28;20052;-49
2021/06/06 03:38:51;;;;;;;2.40;1.83;;;;;;;21.71;58.39;100224.84;2088925;28;20045;-48
2021/06/06 03:39:55;;;;;;;2.03;1.17;;;;;;;21.71;58.12;100219.34;2084742;28;20101;-45
2021/06/06 03:40:55;;;;;;;2.47;1.65;;;;;;;21.71;58.44;100219.34;2088071;28;20025;-47
2021/06/06 03:41:58;;;;;;;1.93;1.20;;;;;;;21.71;58.34;100216.59;2088200;28;20021;-50
2021/06/06 03:42:59;;;;;;;1.75;1.27;;;;;;;21.71;58.18;100221.25;2087687;28;20028;-46
2021/06/06 03:44:00;;;;;;;1.70;1.27;;;;;;;21.72;58.11;100218.31;2088645;28;20417;-47
2021/06/06 03:45:00;;;;;;;2.00;1.47;;;;;;;21.72;58.51;100223.78;2086319;28;20057;-48
2021/06/06 03:46:01;;;;;;;1.50;1.40;;;;;;;21.71;58.44;100219.34;2084155;28;20044;-47
2021/06/06 03:47:03;;;;;;;2.10;1.45;;;;;;;21.71;58.22;100227.56;2085417;28;20714;-47
2021/06/06 03:48:04;;;;;;;1.63;1.20;;;;;;;21.71;58.35;100219.34;2086531;28;20450;-49
2021/06/06 03:49:06;;;;;;;1.83;1.52;;;;;;;21.72;58.29;100220.19;2083447;28;20075;-45
2021/06/06 03:50:11;;;;;;;2.33;1.40;;;;;;;21.71;58.23;100211.13;2083149;28;20053;-46
2021/06/06 03:51:14;;;;;;;1.35;1.10;;;;;;;21.70;58.14;100223.09;2083924;28;20044;-47
2021/06/06 03:52:14;;;;;;;1.20;1.10;;;;;;;21.70;58.52;100217.59;2087927;28;20028;-46
2021/06/06 03:53:15;;;;;;;3.00;1.67;;;;;;;21.72;58.39;100220.19;2092443;28;20108;-48
2021/06/06 03:54:17;;;;;;;1.87;1.53;;;;;;;21.72;58.41;100220.19;2089247;28;20334;-48
2021/06/06 03:55:19;;;;;;;1.88;1.35;;;;;;;21.70;58.08;100217.59;2087976;28;20140;-46
2021/06/06 03:56:21;;;;;;;1.75;1.35;;;;;;;21.71;58.29;100213.00;2086119;28;20079;-47
2021/06/06 03:57:21;;;;;;;2.17;1.40;;;;;;;21.70;58.20;100223.09;2088810;28;20017;-46
2021/06/06 03:58:24;;;;;;;1.37;1.20;;;;;;;21.70;58.20;100236.81;2087017;28;20577;-47
2021/06/06 03:59:25;;;;;;;1.77;1.20;;;;;;;21.70;58.08;100223.09;2082124;28;20033;-47
2021/06/06 04:00:31;;;;;;;5.45;1.67;;;;;;;21.70;58.24;100234.06;2082896;28;20030;-47
2021/06/06 04:01:32;;;;;;;2.03;1.58;;;;;;;21.70;58.11;100234.06;2087342;28;20037;-46
2021/06/06 04:02:33;;;;;;;1.60;1.47;;;;;;;21.70;58.38;100227.72;2073585;28;20029;-48
2021/06/06 04:03:34;;;;;;;1.83;1.40;;;;;;;21.71;58.12;100229.47;2078602;28;20105;-48
2021/06/06 04:04:34;;;;;;;1.65;1.33;;;;;;;21.70;58.35;100223.09;2085293;28;20061;-48
2021/06/06 04:05:35;;;;;;;2.10;1.40;;;;;;;21.70;58.05;100225.84;2089453;28;20063;-46
2021/06/06 04:06:35;;;;;;;2.63;1.57;;;;;;;21.70;58.28;100225.84;2087125;28;20368;-46
2021/06/06 04:07:36;;;;;;;1.63;1.10;;;;;;;21.69;58.22;100218.66;2089666;28;20024;-46
2021/06/06 04:08:37;;;;;;;1.60;1.20;;;;;;;21.70;58.12;100224.97;2087038;28;20056;-48
2021/06/06 04:09:37;;;;;;;1.67;1.20;;;;;;;21.69;58.18;100221.38;2092506;28;20045;-46
2021/06/06 04:10:38;;;;;;;2.47;1.43;;;;;;;21.69;58.13;100221.38;2086369;28;20127;-47
2021/06/06 04:11:39;;;;;;;2.13;1.42;;;;;;;21.69;58.53;100224.13;2082169;28;20112;-46
2021/06/06 04:12:40;;;;;;;2.22;1.40;;;;;;;21.69;58.22;100232.38;2087739;28;20028;-46
2021/06/06 04:13:40;;;;;;;2.27;1.30;;;;;;;21.68;58.54;100230.66;2081024;28;20034;-46
2021/06/06 04:14:41;;;;;;;1.70;1.43;;;;;;;21.69;58.54;100231.50;2088423;28;20506;-47
2021/06/06 04:15:42;;;;;;;1.83;1.30;;;;;;;21.69;58.30;100223.28;2084769;28;20029;-47
2021/06/06 04:16:42;;;;;;;1.63;1.37;;;;;;;21.68;58.40;100222.44;2090612;28;20447;-47
2021/06/06 04:17:43;;;;;;;1.60;1.20;;;;;;;21.69;58.47;100220.53;2079915;28;20087;-45
2021/06/06 04:18:44;;;;;;;2.13;1.55;;;;;;;21.69;58.22;100232.38;2081891;28;20025;-47
2021/06/06 04:19:44;;;;;;;1.70;1.10;;;;;;;21.69;58.02;100220.53;2088261;28;20029;-46
2021/06/06 04:20:46;;;;;;;1.73;1.20;;;;;;;21.67;58.12;100215.19;2086227;28;20025;-47
2021/06/06 04:21:47;;;;;;;1.83;1.10;;;;;;;21.69;58.26;100226.03;2081998;28;20032;-49
2021/06/06 04:22:47;;;;;;;2.00;1.40;;;;;;;21.68;58.20;100230.66;2086552;28;20100;-51
2021/06/06 04:23:48;;;;;;;2.27;1.53;;;;;;;21.69;58.20;100232.38;2089764;28;20021;-47
2021/06/06 04:24:49;;;;;;;1.43;1.20;;;;;;;21.68;58.04;100236.16;2086974;28;20041;-47
2021/06/06 04:25:50;;;;;;;1.87;1.30;;;;;;;21.68;58.23;100229.78;2082994;28;20692;-47
2021/06/06 04:26:51;;;;;;;2.13;1.40;;;;;;;21.67;58.47;100231.66;2085938;28;20113;-48
2021/06/06 04:27:51;;;;;;;1.93;1.30;;;;;;;21.67;58.02;100237.16;2084749;28;20039;-47
2021/06/06 04:28:52;;;;;;;2.43;1.53;;;;;;;21.67;58.24;100239.88;2084535;28;20033;-47
2021/06/06 04:29:53;;;;;;;1.45;1.35;;;;;;;21.67;58.23;100234.41;2087580;28;20063;-46
2021/06/06 04:30:54;;;;;;;2.63;1.20;;;;;;;21.66;58.10;100240.94;2083320;28;20033;-48
2021/06/06 04:31:55;;;;;;;1.57;1.23;;;;;;;21.66;58.35;100238.19;2082682;28;20061;-47
2021/06/06 04:32:56;;;;;;;2.70;1.37;;;;;;;21.66;58.19;100235.44;2083593;28;20028;-45
2021/06/06 04:33:56;;;;;;;2.50;1.20;;;;;;;21.65;58.37;100239.19;2086521;28;20040;-48
2021/06/06 04:34:57;;;;;;;1.40;1.13;;;;;;;21.65;58.37;100232.84;2087019;28;20029;-47
2021/06/06 04:35:57;;;;;;;1.43;1.33;;;;;;;21.65;58.26;100230.97;2085306;28;20482;-45
2021/06/06 04:36:58;;;;;;;2.27;1.40;;;;;;;21.64;58.71;100237.47;2087072;28;20032;-46
2021/06/06 04:37:58;;;;;;;1.23;1.13;;;;;;;21.64;58.50;100232.00;2087862;28;20370;-46
2021/06/06 04:38:59;;;;;;;2.07;1.20;;;;;;;21.65;58.46;100236.44;2084861;28;20112;-47
2021/06/06 04:39:59;;;;;;;1.77;1.30;;;;;;;21.64;58.50;100234.75;2084038;28;20082;-46
2021/06/06 04:41:05;;;;;;;1.80;1.37;;;;;;;21.64;58.36;100242.13;2085861;28;20056;-48
2021/06/06 04:42:09;;;;;;;2.40;1.60;;;;;;;21.63;58.60;100233.00;2082117;28;20025;-48
2021/06/06 04:43:10;;;;;;;3.50;1.17;;;;;;;21.64;58.83;100234.75;2085473;28;20028;-48
2021/06/06 04:44:11;;;;;;;9.32;1.60;;;;;;;21.66;58.80;100235.44;2090210;28;20021;-49
2021/06/06 04:45:13;;;;;;;5.10;1.63;;;;;;;21.66;58.51;100243.66;2078255;28;20039;-45
2021/06/06 04:46:16;;;;;;;4.70;1.27;;;;;;;21.70;58.49;100239.56;2079549;28;20037;-47
2021/06/06 04:47:17;;;;;;;4.32;1.20;;;;;;;21.71;58.21;100241.28;2082545;28;20031;-46
2021/06/06 04:48:22;;;;;;;5.18;1.40;;;;;;;21.69;58.54;100245.22;2080229;28;20374;-47
2021/06/06 04:49:23;;;;;;;4.57;1.40;;;;;;;21.71;57.96;100238.56;2081886;28;20324;-48
2021/06/06 04:50:23;;;;;;;3.83;1.40;;;;;;;21.72;58.33;100245.75;2082523;28;20037;-46
2021/06/06 04:51:25;;;;;;;6.97;1.77;;;;;;;21.72;58.49;100243.00;2083398;28;20044;-47
2021/06/06 04:52:25;;;;;;;2.58;1.55;;;;;;;21.71;58.06;100244.03;2079910;28;20032;-59
2021/06/06 04:53:26;;;;;;;1.73;1.33;;;;;;;21.74;58.08;100251.09;2086695;28;20079;-58
2021/06/06 04:54:26;;;;;;;2.00;1.30;;;;;;;21.75;58.07;100242.66;2086481;28;20081;-58
2021/06/06 04:55:27;;;;;;;1.27;1.13;;;;;;;21.75;58.17;100245.41;2088317;28;20136;-60
2021/06/06 04:56:28;;;;;;;1.50;0.93;;;;;;;21.75;58.12;100231.69;2086702;28;20514;-60
2021/06/06 04:57:29;;;;;;;3.38;1.40;;;;;;;21.75;58.26;100237.19;2086696;28;20104;-58
2021/06/06 04:58:31;;;;;;;5.83;1.40;;;;;;;21.76;58.14;100243.56;2088049;28;20390;-58
2021/06/06 04:59:35;;;;;;;1.50;1.25;;;;;;;21.77;58.21;100229.66;2087290;28;20024;-58
2021/06/06 05:00:36;;;;;;;2.85;1.25;;;;;;;21.77;58.41;100235.13;2086154;28;20024;-58
2021/06/06 05:01:36;;;;;;;1.93;1.47;;;;;;;21.77;58.50;100235.13;2082194;28;20109;-59